Terminal Aerodrome Forecast
Issued by NWS

Home | Current Version | Previous Version | Text Only | Print | Product List | Glossary On
Versions: 1 2 3 4 5 6 7 8 9 10 11 12 13 14
715
FTUS45 KTFX 221518 AAB
TAFHVR
TAF AMD
KHVR 221518Z 2215/2312 07007KT 5SM -SN BR SCT007 BKN030
      TEMPO 2215/2218 2SM -SN BR BKN003
     FM222000 03007KT P6SM SCT010 BKN030
      TEMPO 2223/2302 3SM -SN BR BKN005=

USA.gov is the U.S. government's official web portal to all federal, state and local government web resources and services.